Time;durP1;ratioP1;P1;durP2;ratioP2;P2;SDS_P1;SDS_P2;PMS_P1;PMS_P2;Temp;Humidity;BMP_temperature;BMP_pressure;BME280_temperature;BME280_humidity;BME280_pressure;Samples;Min_cycle;Max_cycle;Signal;HPM_P1;HPM_P2
2023/09/13 00:00:26;;;;;;;1.63;1.52;;;;;;;;;;4998042;28;20031;-78
2023/09/13 00:02:52;;;;;;;1.30;1.25;;;;;;;;;;4996284;28;20054;-80
2023/09/13 00:05:18;;;;;;;2.00;1.40;;;;;;;;;;4998774;28;20045;-78
2023/09/13 00:07:44;;;;;;;2.17;1.90;;;;;;;;;;4997034;28;20030;-77
2023/09/13 00:10:10;;;;;;;1.70;1.52;;;;;;;;;;4998218;28;20046;-78
2023/09/13 00:12:36;;;;;;;1.00;1.00;;;;;;;;;;4994865;28;20038;-78
2023/09/13 00:15:03;;;;;;;1.17;1.15;;;;;;;;;;4995164;28;20532;-79
2023/09/13 00:17:29;;;;;;;0.95;0.95;;;;;;;;;;4997145;28;20081;-79
2023/09/13 00:19:56;;;;;;;1.05;1.00;;;;;;;;;;4992889;28;20022;-78
2023/09/13 00:22:22;;;;;;;1.17;1.17;;;;;;;;;;4994818;28;20022;-78
2023/09/13 00:24:48;;;;;;;1.00;1.00;;;;;;;;;;4994267;28;20390;-78
2023/09/13 00:27:14;;;;;;;0.75;0.75;;;;;;;;;;4995610;28;20026;-79
2023/09/13 00:29:41;;;;;;;1.00;0.90;;;;;;;;;;4976682;28;20043;-79
2023/09/13 00:32:07;;;;;;;1.00;1.00;;;;;;;;;;4976984;28;20077;-79
2023/09/13 00:34:33;;;;;;;1.13;1.13;;;;;;;;;;4987955;28;20062;-81
2023/09/13 00:36:59;;;;;;;0.73;0.73;;;;;;;;;;4990593;28;20047;-78
2023/09/13 00:39:25;;;;;;;1.00;1.00;;;;;;;;;;4974519;28;20019;-78
2023/09/13 00:41:51;;;;;;;1.77;1.10;;;;;;;;;;4999420;28;20077;-79
2023/09/13 00:44:17;;;;;;;1.10;1.10;;;;;;;;;;5010359;28;20018;-78
2023/09/13 00:46:45;;;;;;;1.02;1.02;;;;;;;;;;4994903;28;20025;-78
2023/09/13 00:49:11;;;;;;;0.93;0.93;;;;;;;;;;4994830;28;20029;-77
2023/09/13 00:51:37;;;;;;;1.23;1.13;;;;;;;;;;4995351;28;20434;-78
2023/09/13 00:54:04;;;;;;;1.33;1.23;;;;;;;;;;4995479;28;20034;-78
2023/09/13 00:56:31;;;;;;;0.82;0.82;;;;;;;;;;4996674;28;20026;-80
2023/09/13 00:58:57;;;;;;;0.90;0.90;;;;;;;;;;5012958;28;20026;-79
2023/09/13 01:01:23;;;;;;;0.85;0.82;;;;;;;;;;4998754;28;20051;-77
2023/09/13 01:03:49;;;;;;;1.00;1.00;;;;;;;;;;4991846;28;20038;-78
2023/09/13 01:06:15;;;;;;;1.00;1.00;;;;;;;;;;4995867;28;20026;-77
2023/09/13 01:08:42;;;;;;;0.98;0.93;;;;;;;;;;4995238;28;20029;-77
2023/09/13 01:11:09;;;;;;;1.10;1.00;;;;;;;;;;4996419;28;20030;-80
2023/09/13 01:13:35;;;;;;;0.90;0.90;;;;;;;;;;4994175;28;20071;-77
2023/09/13 01:16:20;;;;;;;1.20;1.10;;;;;;;;;;4994626;28;20050;-77
2023/09/13 01:19:05;;;;;;;1.02;1.02;;;;;;;;;;4996341;28;20038;-77
2023/09/13 01:22:01;;;;;;;1.00;1.00;;;;;;;;;;4999868;28;20453;-77
2023/09/13 01:24:30;;;;;;;2.72;1.55;;;;;;;;;;4992651;28;20394;-77
2023/09/13 01:27:06;;;;;;;1.27;1.27;;;;;;;;;;4978432;28;20022;-78
2023/09/13 01:29:33;;;;;;;1.40;1.30;;;;;;;;;;4978028;28;20023;-78
2023/09/13 01:31:59;;;;;;;1.50;1.40;;;;;;;;;;4982738;28;20026;-77
2023/09/13 01:34:25;;;;;;;1.58;1.48;;;;;;;;;;4992042;28;20026;-78
2023/09/13 01:36:53;;;;;;;1.73;1.63;;;;;;;;;;4997295;28;20019;-78
2023/09/13 01:39:20;;;;;;;1.33;1.23;;;;;;;;;;4996700;28;20026;-77
2023/09/13 01:41:48;;;;;;;1.45;1.35;;;;;;;;;;4996571;28;20018;-77
2023/09/13 01:44:15;;;;;;;1.38;1.23;;;;;;;;;;5011029;28;20384;-78
2023/09/13 01:46:43;;;;;;;1.80;1.70;;;;;;;;;;5015365;28;20113;-78
2023/09/13 01:49:10;;;;;;;1.50;1.40;;;;;;;;;;5015953;28;20104;-77
2023/09/13 01:51:36;;;;;;;1.83;1.50;;;;;;;;;;4981322;28;20482;-78
2023/09/13 01:54:02;;;;;;;1.60;1.50;;;;;;;;;;4977033;28;20062;-78
2023/09/13 01:56:29;;;;;;;1.23;1.23;;;;;;;;;;4976928;28;20490;-78
2023/09/13 01:58:55;;;;;;;1.20;1.20;;;;;;;;;;4976937;28;20142;-78
2023/09/13 02:01:21;;;;;;;1.55;1.45;;;;;;;;;;4976795;28;20414;-77
2023/09/13 02:03:47;;;;;;;1.40;1.30;;;;;;;;;;4976972;28;20054;-78
2023/09/13 02:06:13;;;;;;;1.40;1.27;;;;;;;;;;4977122;28;20023;-78
2023/09/13 02:08:41;;;;;;;1.40;1.30;;;;;;;;;;4991393;28;20404;-78
2023/09/13 02:11:07;;;;;;;0.82;0.82;;;;;;;;;;4982713;28;20026;-78
2023/09/13 02:13:33;;;;;;;1.15;1.15;;;;;;;;;;5012143;28;20030;-78
2023/09/13 02:15:59;;;;;;;1.30;1.20;;;;;;;;;;5006477;28;20037;-79
2023/09/13 02:18:25;;;;;;;1.05;1.05;;;;;;;;;;4995672;28;20030;-79
2023/09/13 02:20:52;;;;;;;1.17;1.17;;;;;;;;;;4996262;28;20026;-78
2023/09/13 02:23:19;;;;;;;0.93;0.93;;;;;;;;;;4995690;28;20023;-78
2023/09/13 02:25:45;;;;;;;1.27;1.17;;;;;;;;;;4995991;28;20130;-78
2023/09/13 02:28:12;;;;;;;1.20;1.10;;;;;;;;;;4995872;28;20560;-78
2023/09/13 02:30:38;;;;;;;1.30;1.20;;;;;;;;;;4994763;28;20019;-78
2023/09/13 02:33:05;;;;;;;0.85;0.85;;;;;;;;;;4995007;28;20113;-79
2023/09/13 02:35:32;;;;;;;1.02;1.02;;;;;;;;;;5000341;28;20026;-78
2023/09/13 02:37:58;;;;;;;1.40;1.30;;;;;;;;;;5018344;28;20022;-78
2023/09/13 02:40:24;;;;;;;2.95;1.17;;;;;;;;;;4998164;28;20026;-77
2023/09/13 02:42:50;;;;;;;1.02;0.95;;;;;;;;;;4996802;28;20022;-78
2023/09/13 02:45:16;;;;;;;1.00;1.00;;;;;;;;;;4990869;28;20098;-78
2023/09/13 02:47:43;;;;;;;1.35;1.23;;;;;;;;;;4992958;28;20030;-77
2023/09/13 02:50:10;;;;;;;2.55;1.33;;;;;;;;;;4996194;28;20023;-78
2023/09/13 02:52:36;;;;;;;1.50;1.40;;;;;;;;;;4995973;28;20034;-79
2023/09/13 02:55:05;;;;;;;1.33;1.30;;;;;;;;;;4995797;28;20030;-79
2023/09/13 02:57:31;;;;;;;1.30;1.30;;;;;;;;;;4995598;28;20390;-78
2023/09/13 02:59:57;;;;;;;2.05;1.60;;;;;;;;;;4996243;28;20026;-78
2023/09/13 03:02:23;;;;;;;1.45;1.35;;;;;;;;;;4991101;28;20108;-77
2023/09/13 03:04:51;;;;;;;2.13;1.70;;;;;;;;;;4994973;28;20500;-79
2023/09/13 03:07:17;;;;;;;1.52;1.42;;;;;;;;;;4990051;28;20035;-79
2023/09/13 03:09:44;;;;;;;1.50;1.40;;;;;;;;;;4998939;28;20030;-80
2023/09/13 03:12:11;;;;;;;1.60;1.45;;;;;;;;;;4996442;28;20109;-80
2023/09/13 03:14:37;;;;;;;1.90;1.80;;;;;;;;;;4999474;28;20026;-80
2023/09/13 03:17:03;;;;;;;3.17;2.10;;;;;;;;;;4994280;28;20037;-78
2023/09/13 03:19:32;;;;;;;2.45;2.15;;;;;;;;;;4997782;28;20018;-81
2023/09/13 03:21:58;;;;;;;2.30;2.17;;;;;;;;;;4994328;28;20027;-79
2023/09/13 03:24:24;;;;;;;5.10;2.35;;;;;;;;;;4997014;28;20019;-78
2023/09/13 03:26:58;;;;;;;2.33;2.13;;;;;;;;;;4994887;28;20027;-79
2023/09/13 03:29:24;;;;;;;2.03;1.92;;;;;;;;;;5003625;28;20033;-80
2023/09/13 03:31:50;;;;;;;2.90;2.22;;;;;;;;;;5005597;28;20030;-79
2023/09/13 03:34:16;;;;;;;2.35;2.15;;;;;;;;;;5006560;28;20520;-79
2023/09/13 03:36:43;;;;;;;2.28;2.10;;;;;;;;;;5007960;28;20051;-79
2023/09/13 03:39:09;;;;;;;2.20;1.98;;;;;;;;;;5006785;28;20037;-80
2023/09/13 03:41:35;;;;;;;2.63;2.15;;;;;;;;;;5006427;28;20031;-79
2023/09/13 03:44:03;;;;;;;1.92;1.70;;;;;;;;;;5005541;28;20033;-80
2023/09/13 03:46:29;;;;;;;1.95;1.85;;;;;;;;;;5008974;28;20015;-80
2023/09/13 03:48:55;;;;;;;1.92;1.83;;;;;;;;;;5012462;28;20027;-79
2023/09/13 03:51:21;;;;;;;2.13;2.03;;;;;;;;;;5009612;28;20067;-81
2023/09/13 03:53:47;;;;;;;2.13;1.92;;;;;;;;;;4990046;28;20031;-80
2023/09/13 03:56:13;;;;;;;2.20;2.00;;;;;;;;;;4983526;28;20035;-80
2023/09/13 03:58:39;;;;;;;2.58;2.38;;;;;;;;;;4987866;28;20046;-80
2023/09/13 04:01:06;;;;;;;2.60;2.40;;;;;;;;;;4988370;28;20504;-79
2023/09/13 04:03:32;;;;;;;2.30;2.10;;;;;;;;;;4986721;28;20022;-79
2023/09/13 04:05:59;;;;;;;2.15;2.05;;;;;;;;;;4990969;28;20081;-82
2023/09/13 04:08:25;;;;;;;2.20;2.00;;;;;;;;;;4988932;28;20018;-81
2023/09/13 04:10:51;;;;;;;2.08;1.88;;;;;;;;;;4992148;28;20031;-79
2023/09/13 04:13:17;;;;;;;2.28;2.08;;;;;;;;;;5001769;28;20105;-80
2023/09/13 04:15:47;;;;;;;2.03;1.92;;;;;;;;;;5002243;28;20033;-77
2023/09/13 04:18:13;;;;;;;2.00;1.90;;;;;;;;;;4990425;28;20029;-79
2023/09/13 04:20:39;;;;;;;1.90;1.80;;;;;;;;;;5017453;28;20037;-80
2023/09/13 04:23:06;;;;;;;1.80;1.70;;;;;;;;;;5013394;28;20033;-79
2023/09/13 04:25:32;;;;;;;1.70;1.60;;;;;;;;;;5004354;28;20386;-79
2023/09/13 04:27:58;;;;;;;1.98;1.88;;;;;;;;;;5000909;28;20033;-81
2023/09/13 04:30:24;;;;;;;2.00;1.90;;;;;;;;;;4999629;28;20030;-79
2023/09/13 04:32:50;;;;;;;2.05;1.95;;;;;;;;;;5001283;28;20027;-80
2023/09/13 04:35:17;;;;;;;2.00;1.90;;;;;;;;;;4999887;28;20120;-79
2023/09/13 04:37:44;;;;;;;2.40;2.20;;;;;;;;;;5006759;28;20044;-81
2023/09/13 04:40:10;;;;;;;2.10;1.98;;;;;;;;;;5011764;28;21659;-79
2023/09/13 04:42:43;;;;;;;2.00;1.90;;;;;;;;;;5009792;28;20478;-79
2023/09/13 04:45:10;;;;;;;2.35;2.15;;;;;;;;;;4981951;28;20379;-78
2023/09/13 04:47:36;;;;;;;2.00;1.90;;;;;;;;;;4978643;28;20026;-79
2023/09/13 04:50:03;;;;;;;2.78;2.22;;;;;;;;;;4978341;28;20031;-78
2023/09/13 04:52:29;;;;;;;2.35;2.15;;;;;;;;;;4978649;28;20090;-77
2023/09/13 04:54:55;;;;;;;1.83;1.73;;;;;;;;;;4984919;28;20023;-78
2023/09/13 04:57:21;;;;;;;1.83;1.73;;;;;;;;;;4984979;28;20054;-78
2023/09/13 04:59:48;;;;;;;3.47;2.15;;;;;;;;;;4985829;28;20034;-80
2023/09/13 05:02:14;;;;;;;3.08;2.13;;;;;;;;;;4985656;28;20030;-78
2023/09/13 05:04:41;;;;;;;1.83;1.70;;;;;;;;;;4981987;28;20022;-78
2023/09/13 05:07:07;;;;;;;2.30;2.10;;;;;;;;;;4983817;28;20027;-80
2023/09/13 05:09:34;;;;;;;2.53;2.33;;;;;;;;;;4985408;28;20367;-78
2023/09/13 05:12:00;;;;;;;2.92;2.13;;;;;;;;;;4995369;28;20018;-79
2023/09/13 05:14:27;;;;;;;2.25;2.08;;;;;;;;;;5001798;28;20034;-79
2023/09/13 05:16:53;;;;;;;2.42;2.28;;;;;;;;;;5003000;28;20019;-79
2023/09/13 05:19:19;;;;;;;2.17;2.05;;;;;;;;;;4999773;28;20098;-79
2023/09/13 05:21:45;;;;;;;2.35;2.25;;;;;;;;;;5001994;28;20022;-78
2023/09/13 05:24:12;;;;;;;2.30;2.20;;;;;;;;;;5003303;28;20054;-80
2023/09/13 05:26:38;;;;;;;2.47;2.05;;;;;;;;;;5004125;28;20057;-80
2023/09/13 05:29:04;;;;;;;2.20;2.10;;;;;;;;;;5004070;28;20038;-77
2023/09/13 05:31:31;;;;;;;2.45;2.28;;;;;;;;;;5002223;28;20037;-79
2023/09/13 05:33:57;;;;;;;2.85;2.30;;;;;;;;;;4997541;28;20019;-79
2023/09/13 05:36:23;;;;;;;2.20;2.00;;;;;;;;;;4984776;28;20102;-78
2023/09/13 05:38:50;;;;;;;2.50;2.35;;;;;;;;;;4983564;28;20034;-79
2023/09/13 05:41:18;;;;;;;2.72;2.53;;;;;;;;;;4998973;28;20022;-80
2023/09/13 05:43:44;;;;;;;3.15;2.85;;;;;;;;;;5015218;28;20025;-79
2023/09/13 05:46:23;;;;;;;2.60;2.40;;;;;;;;;;5002901;28;20023;-80
2023/09/13 05:48:49;;;;;;;2.67;2.47;;;;;;;;;;5005559;28;20022;-77
2023/09/13 05:51:15;;;;;;;4.70;3.00;;;;;;;;;;4991695;28;20061;-79
2023/09/13 05:53:41;;;;;;;3.75;3.45;;;;;;;;;;4988329;28;20122;-81
2023/09/13 05:56:10;;;;;;;3.80;3.40;;;;;;;;;;4998565;28;20026;-79
2023/09/13 05:58:36;;;;;;;3.83;3.42;;;;;;;;;;5003588;28;20037;-77
2023/09/13 06:01:02;;;;;;;3.65;3.35;;;;;;;;;;5007503;28;20026;-78
2023/09/13 06:03:30;;;;;;;3.47;3.17;;;;;;;;;;5007409;28;20026;-79
2023/09/13 06:05:57;;;;;;;5.18;3.97;;;;;;;;;;5003556;28;20045;-78
2023/09/13 06:08:23;;;;;;;6.35;4.00;;;;;;;;;;5005721;28;20042;-80
2023/09/13 06:10:49;;;;;;;4.28;3.97;;;;;;;;;;5016868;28;20075;-80
2023/09/13 06:13:15;;;;;;;4.53;4.05;;;;;;;;;;5005499;28;20030;-77
2023/09/13 06:15:41;;;;;;;4.78;3.88;;;;;;;;;;4982225;28;20033;-78
2023/09/13 06:18:08;;;;;;;4.28;3.72;;;;;;;;;;4981663;28;20079;-78
2023/09/13 06:20:34;;;;;;;3.80;3.50;;;;;;;;;;4981553;28;20037;-80
2023/09/13 06:23:00;;;;;;;3.55;3.25;;;;;;;;;;4978191;28;20029;-79
2023/09/13 06:25:26;;;;;;;3.95;3.65;;;;;;;;;;4981641;28;20490;-79
2023/09/13 06:27:52;;;;;;;3.60;3.30;;;;;;;;;;4982997;28;20035;-79
2023/09/13 06:30:20;;;;;;;3.85;3.55;;;;;;;;;;4984739;28;20035;-79
2023/09/13 06:32:46;;;;;;;4.05;3.75;;;;;;;;;;4984551;28;20458;-79
2023/09/13 06:35:13;;;;;;;3.80;3.40;;;;;;;;;;4982692;28;20035;-80
2023/09/13 06:37:39;;;;;;;3.58;3.28;;;;;;;;;;4986788;28;20065;-81
2023/09/13 06:40:06;;;;;;;3.50;3.20;;;;;;;;;;4999729;28;20034;-79
2023/09/13 06:42:32;;;;;;;3.05;2.85;;;;;;;;;;5009732;28;20030;-77
2023/09/13 06:44:59;;;;;;;4.20;3.10;;;;;;;;;;5008704;28;20026;-78
2023/09/13 06:47:28;;;;;;;3.00;2.80;;;;;;;;;;5008385;28;20033;-78
2023/09/13 06:49:54;;;;;;;2.83;2.63;;;;;;;;;;5008787;28;20022;-80
2023/09/13 06:52:20;;;;;;;3.10;2.85;;;;;;;;;;5007778;28;20090;-79
2023/09/13 06:54:46;;;;;;;3.00;2.80;;;;;;;;;;5003901;28;20033;-80
2023/09/13 06:57:13;;;;;;;2.67;2.47;;;;;;;;;;5004239;28;20030;-80
2023/09/13 06:59:39;;;;;;;2.28;2.10;;;;;;;;;;5003265;28;20116;-80
2023/09/13 07:02:06;;;;;;;2.60;2.40;;;;;;;;;;5002745;28;20030;-78
2023/09/13 07:04:32;;;;;;;2.17;2.03;;;;;;;;;;5002510;28;20038;-79
2023/09/13 07:06:58;;;;;;;2.08;1.98;;;;;;;;;;5002040;28;20084;-79
2023/09/13 07:09:24;;;;;;;2.42;2.22;;;;;;;;;;5000128;28;20117;-78
2023/09/13 07:11:50;;;;;;;2.13;2.03;;;;;;;;;;5002503;28;20053;-79
2023/09/13 07:14:17;;;;;;;2.03;1.83;;;;;;;;;;5017790;28;20034;-79
2023/09/13 07:16:43;;;;;;;2.00;1.90;;;;;;;;;;5001884;28;20022;-79
2023/09/13 07:19:09;;;;;;;2.00;1.90;;;;;;;;;;4990450;28;20036;-80
2023/09/13 07:21:35;;;;;;;1.98;1.88;;;;;;;;;;5001143;28;20018;-78
2023/09/13 07:24:01;;;;;;;1.70;1.60;;;;;;;;;;5001548;28;20023;-79
2023/09/13 07:26:27;;;;;;;1.52;1.42;;;;;;;;;;5003587;28;20086;-79
2023/09/13 07:28:53;;;;;;;1.77;1.67;;;;;;;;;;5002291;28;20034;-78
2023/09/13 07:31:19;;;;;;;1.48;1.40;;;;;;;;;;5003393;28;20049;-79
2023/09/13 07:33:45;;;;;;;1.63;1.52;;;;;;;;;;4993778;28;20078;-78
2023/09/13 07:36:11;;;;;;;1.42;1.38;;;;;;;;;;4984764;28;20096;-80
2023/09/13 07:38:38;;;;;;;1.55;1.45;;;;;;;;;;4982078;28;20038;-79
2023/09/13 07:41:04;;;;;;;1.80;1.70;;;;;;;;;;4984985;28;20045;-79
2023/09/13 07:43:30;;;;;;;1.50;1.40;;;;;;;;;;5008087;28;20058;-81
2023/09/13 07:45:56;;;;;;;2.40;2.20;;;;;;;;;;5022247;28;20056;-81
2023/09/13 07:48:23;;;;;;;2.45;2.03;;;;;;;;;;5021365;28;20112;-79
2023/09/13 07:50:49;;;;;;;2.42;2.22;;;;;;;;;;5007422;28;20023;-79
2023/09/13 07:53:15;;;;;;;2.67;2.40;;;;;;;;;;5002636;28;20030;-80
2023/09/13 07:55:41;;;;;;;2.67;2.47;;;;;;;;;;5000869;28;20030;-79
2023/09/13 07:58:08;;;;;;;3.42;2.00;;;;;;;;;;5000552;28;20026;-80
2023/09/13 08:00:34;;;;;;;2.45;2.25;;;;;;;;;;5000501;28;20142;-81
2023/09/13 08:03:00;;;;;;;2.22;2.13;;;;;;;;;;4999817;28;20616;-80
2023/09/13 08:05:27;;;;;;;2.05;1.95;;;;;;;;;;5001644;28;20026;-78
2023/09/13 08:07:53;;;;;;;2.13;1.92;;;;;;;;;;5000762;28;20033;-77
2023/09/13 08:10:21;;;;;;;2.28;2.10;;;;;;;;;;4999401;28;20049;-79
2023/09/13 08:12:48;;;;;;;2.50;2.10;;;;;;;;;;5016447;28;20061;-80
2023/09/13 08:15:14;;;;;;;2.17;2.08;;;;;;;;;;5001120;28;20026;-79
2023/09/13 08:17:40;;;;;;;2.40;2.20;;;;;;;;;;4998456;28;20398;-79
2023/09/13 08:20:08;;;;;;;2.25;2.05;;;;;;;;;;5000724;28;20015;-77
2023/09/13 08:22:34;;;;;;;2.20;2.10;;;;;;;;;;4995622;28;20151;-80
2023/09/13 08:25:01;;;;;;;2.30;2.20;;;;;;;;;;4982278;28;20023;-79
2023/09/13 08:27:27;;;;;;;2.10;2.00;;;;;;;;;;4981058;28;20038;-81
2023/09/13 08:29:56;;;;;;;2.13;2.03;;;;;;;;;;4979395;28;20035;-77
2023/09/13 08:32:22;;;;;;;1.90;1.80;;;;;;;;;;4983900;28;20027;-78
2023/09/13 08:34:48;;;;;;;1.88;1.77;;;;;;;;;;4984767;28;20063;-79
2023/09/13 08:37:14;;;;;;;1.95;1.85;;;;;;;;;;4992063;28;20031;-78
2023/09/13 08:39:41;;;;;;;3.40;2.55;;;;;;;;;;5006444;28;20046;-81
2023/09/13 08:42:07;;;;;;;2.47;2.28;;;;;;;;;;5007175;28;20034;-79
2023/09/13 08:44:34;;;;;;;2.60;2.40;;;;;;;;;;5016697;28;20069;-78
2023/09/13 08:47:01;;;;;;;2.53;2.33;;;;;;;;;;5021192;28;20026;-78
2023/09/13 08:49:27;;;;;;;2.33;2.17;;;;;;;;;;5031320;28;20053;-81
2023/09/13 08:51:54;;;;;;;2.13;2.03;;;;;;;;;;5035989;28;20014;-81
2023/09/13 08:54:22;;;;;;;2.28;2.13;;;;;;;;;;5035981;28;20018;-82
2023/09/13 08:56:48;;;;;;;2.38;2.20;;;;;;;;;;5036707;28;20018;-81
2023/09/13 08:59:14;;;;;;;2.40;2.28;;;;;;;;;;5004643;28;20039;-80
2023/09/13 09:01:43;;;;;;;2.35;2.15;;;;;;;;;;4996674;28;20088;-80
2023/09/13 09:04:10;;;;;;;2.42;2.33;;;;;;;;;;4981156;28;20038;-78
2023/09/13 09:06:36;;;;;;;2.65;2.50;;;;;;;;;;4982280;28;20023;-78
2023/09/13 09:09:04;;;;;;;2.50;2.30;;;;;;;;;;4982290;28;20425;-80
2023/09/13 09:11:33;;;;;;;2.38;2.28;;;;;;;;;;4995732;28;20026;-78
2023/09/13 09:14:00;;;;;;;2.20;2.10;;;;;;;;;;4990536;28;20552;-78
2023/09/13 09:16:27;;;;;;;2.08;1.98;;;;;;;;;;4980857;28;20070;-79
2023/09/13 09:18:53;;;;;;;2.25;2.15;;;;;;;;;;4979965;28;20502;-80
2023/09/13 09:21:20;;;;;;;2.20;2.10;;;;;;;;;;4981272;28;20041;-81
2023/09/13 09:23:46;;;;;;;2.20;2.10;;;;;;;;;;4979568;28;20027;-81
2023/09/13 09:26:12;;;;;;;1.90;1.80;;;;;;;;;;4979064;28;20058;-79
2023/09/13 09:28:38;;;;;;;2.00;1.90;;;;;;;;;;4982145;28;20101;-78
2023/09/13 09:31:05;;;;;;;2.00;1.90;;;;;;;;;;4979552;28;20082;-79
2023/09/13 09:33:32;;;;;;;2.58;2.40;;;;;;;;;;4979535;28;20034;-78
2023/09/13 09:35:59;;;;;;;1.80;1.70;;;;;;;;;;4982352;28;20038;-78
2023/09/13 09:38:27;;;;;;;2.10;2.00;;;;;;;;;;4983944;28;20050;-78
2023/09/13 09:40:56;;;;;;;1.98;1.88;;;;;;;;;;4998004;28;20041;-79
2023/09/13 09:43:22;;;;;;;2.88;2.65;;;;;;;;;;5024103;28;20045;-79
2023/09/13 09:45:49;;;;;;;3.35;3.05;;;;;;;;;;5008845;28;20421;-78
2023/09/13 09:48:15;;;;;;;3.20;2.92;;;;;;;;;;5008601;28;20026;-79
2023/09/13 09:51:08;;;;;;;3.42;3.13;;;;;;;;;;5008958;28;20465;-78
2023/09/13 09:53:35;;;;;;;2.80;2.60;;;;;;;;;;5006031;28;20058;-79
2023/09/13 09:56:01;;;;;;;2.35;2.25;;;;;;;;;;5007591;28;20022;-78
2023/09/13 09:58:27;;;;;;;3.15;2.90;;;;;;;;;;5007596;28;20030;-80
2023/09/13 10:00:54;;;;;;;4.20;3.60;;;;;;;;;;5007468;28;20132;-79
2023/09/13 10:03:21;;;;;;;3.50;3.20;;;;;;;;;;4996200;28;20097;-79
2023/09/13 10:05:55;;;;;;;4.05;3.65;;;;;;;;;;5008506;28;20429;-77
2023/09/13 10:08:35;;;;;;;3.50;3.20;;;;;;;;;;5008488;28;20049;-78
2023/09/13 10:11:02;;;;;;;4.53;4.13;;;;;;;;;;5008326;28;20030;-77
2023/09/13 10:13:30;;;;;;;4.68;3.63;;;;;;;;;;5012261;28;20057;-78
2023/09/13 10:15:56;;;;;;;3.38;3.17;;;;;;;;;;5024101;28;20030;-80
2023/09/13 10:18:23;;;;;;;3.50;3.17;;;;;;;;;;5012146;28;20121;-82
2023/09/13 10:20:49;;;;;;;4.20;3.80;;;;;;;;;;4983822;28;20046;-80
2023/09/13 10:23:16;;;;;;;4.07;3.72;;;;;;;;;;4983412;28;20023;-80
2023/09/13 10:25:44;;;;;;;3.78;3.47;;;;;;;;;;4982196;28;20023;-79
2023/09/13 10:28:11;;;;;;;3.80;3.50;;;;;;;;;;4983714;28;20062;-79
2023/09/13 10:30:37;;;;;;;4.55;3.78;;;;;;;;;;4984278;28;20035;-79
2023/09/13 10:33:04;;;;;;;4.40;3.72;;;;;;;;;;4983713;28;20038;-79
2023/09/13 10:35:32;;;;;;;4.38;3.97;;;;;;;;;;4982259;28;20050;-79
2023/09/13 10:38:24;;;;;;;4.13;3.72;;;;;;;;;;4984272;28;20031;-79
2023/09/13 10:41:00;;;;;;;3.80;3.50;;;;;;;;;;4996046;28;20132;-80
2023/09/13 10:43:27;;;;;;;3.50;3.20;;;;;;;;;;4988623;28;20031;-80
2023/09/13 10:45:54;;;;;;;3.13;2.88;;;;;;;;;;4983104;28;20109;-78
2023/09/13 10:48:20;;;;;;;5.07;3.72;;;;;;;;;;4980446;28;20027;-78
2023/09/13 10:50:47;;;;;;;6.75;4.47;;;;;;;;;;4980651;28;20031;-79
2023/09/13 10:53:14;;;;;;;4.20;3.80;;;;;;;;;;4992652;28;20396;-78
2023/09/13 10:55:40;;;;;;;5.05;3.63;;;;;;;;;;4998657;28;20026;-80
2023/09/13 10:58:09;;;;;;;4.35;3.95;;;;;;;;;;5002211;28;20097;-79
2023/09/13 11:00:37;;;;;;;4.10;3.47;;;;;;;;;;5002438;28;20026;-80
2023/09/13 11:03:04;;;;;;;3.60;3.30;;;;;;;;;;5002350;28;20026;-80
2023/09/13 11:05:31;;;;;;;3.38;3.15;;;;;;;;;;4999064;28;20462;-80
2023/09/13 11:07:57;;;;;;;3.40;3.20;;;;;;;;;;4999280;28;20461;-80
2023/09/13 11:10:30;;;;;;;4.00;3.60;;;;;;;;;;4982684;28;20022;-78
2023/09/13 11:12:56;;;;;;;3.72;3.42;;;;;;;;;;4998808;28;20026;-80
2023/09/13 11:15:23;;;;;;;4.78;3.85;;;;;;;;;;5003123;28;20045;-79
2023/09/13 11:17:49;;;;;;;5.18;3.90;;;;;;;;;;5012582;28;20026;-81
2023/09/13 11:20:21;;;;;;;4.05;3.75;;;;;;;;;;5012617;28;20033;-78
2023/09/13 11:23:09;;;;;;;3.78;3.47;;;;;;;;;;5001578;28;20022;-79
2023/09/13 11:25:50;;;;;;;5.60;4.05;;;;;;;;;;4999650;28;20015;-79
2023/09/13 11:28:29;;;;;;;5.10;4.60;;;;;;;;;;5001662;28;20026;-78
2023/09/13 11:30:58;;;;;;;8.45;6.40;;;;;;;;;;5006798;28;20025;-79
2023/09/13 11:33:24;;;;;;;13.43;8.23;;;;;;;;;;5002696;28;20497;-83
2023/09/13 11:35:51;;;;;;;10.30;8.60;;;;;;;;;;5000051;28;20042;-84
2023/09/13 11:38:17;;;;;;;11.80;7.43;;;;;;;;;;4999518;28;20389;-82
2023/09/13 11:41:03;;;;;;;7.15;6.50;;;;;;;;;;4998958;28;20025;-82
2023/09/13 11:43:30;;;;;;;6.85;6.25;;;;;;;;;;5004205;28;20022;-83
2023/09/13 11:45:56;;;;;;;7.72;6.95;;;;;;;;;;5021890;28;20093;-83
2023/09/13 11:48:29;;;;;;;6.75;6.15;;;;;;;;;;5025175;28;20022;-79
2023/09/13 11:50:56;;;;;;;6.22;5.72;;;;;;;;;;5021894;28;20030;-82
2023/09/13 11:53:26;;;;;;;6.07;5.28;;;;;;;;;;5021307;28;20029;-81
2023/09/13 11:55:56;;;;;;;5.35;4.93;;;;;;;;;;5021858;28;20033;-82
2023/09/13 11:58:37;;;;;;;4.95;4.45;;;;;;;;;;4994779;28;20031;-80
2023/09/13 12:01:06;;;;;;;4.55;4.25;;;;;;;;;;4983712;28;20045;-80
2023/09/13 12:03:33;;;;;;;3.33;3.10;;;;;;;;;;4982963;28;20169;-81
2023/09/13 12:06:02;;;;;;;3.25;3.05;;;;;;;;;;4982588;28;20033;-81
2023/09/13 12:08:29;;;;;;;3.70;3.40;;;;;;;;;;4981963;28;20030;-81
2023/09/13 12:10:56;;;;;;;2.72;2.60;;;;;;;;;;4996742;28;20023;-79
2023/09/13 12:13:41;;;;;;;2.45;2.35;;;;;;;;;;5014285;28;20021;-81
2023/09/13 12:16:08;;;;;;;2.13;2.03;;;;;;;;;;5001270;28;20023;-79
2023/09/13 12:18:37;;;;;;;1.90;1.80;;;;;;;;;;4998398;28;20032;-79
2023/09/13 12:21:07;;;;;;;1.92;1.83;;;;;;;;;;5008012;28;20026;-82
2023/09/13 12:23:34;;;;;;;2.00;1.90;;;;;;;;;;4998369;28;20049;-80
2023/09/13 12:26:00;;;;;;;1.67;1.58;;;;;;;;;;5009769;28;20014;-82
2023/09/13 12:28:27;;;;;;;1.35;1.35;;;;;;;;;;5018796;28;20402;-81
2023/09/13 12:30:54;;;;;;;1.40;1.40;;;;;;;;;;4995876;28;20066;-81
2023/09/13 12:33:21;;;;;;;1.48;1.48;;;;;;;;;;4980766;28;20030;-81
2023/09/13 12:35:48;;;;;;;1.02;1.02;;;;;;;;;;4980254;28;20594;-81
2023/09/13 12:38:16;;;;;;;0.80;0.80;;;;;;;;;;4979371;28;20054;-80
2023/09/13 12:40:47;;;;;;;1.00;1.00;;;;;;;;;;4981539;28;20019;-81
2023/09/13 12:43:13;;;;;;;0.70;0.70;;;;;;;;;;5042825;28;20061;-79
2023/09/13 12:45:40;;;;;;;0.60;0.60;;;;;;;;;;5025195;28;20034;-81
2023/09/13 12:48:07;;;;;;;0.70;0.70;;;;;;;;;;5018904;28;20026;-80
2023/09/13 12:50:33;;;;;;;0.60;0.60;;;;;;;;;;5018405;28;20034;-81
2023/09/13 12:53:00;;;;;;;0.40;0.40;;;;;;;;;;5017737;28;20113;-79
2023/09/13 12:55:27;;;;;;;0.43;0.43;;;;;;;;;;5007266;28;20026;-80
2023/09/13 12:58:00;;;;;;;0.43;0.43;;;;;;;;;;4999432;28;20110;-81
2023/09/13 13:00:26;;;;;;;0.45;0.45;;;;;;;;;;4998595;28;20029;-79
2023/09/13 13:02:55;;;;;;;0.30;0.30;;;;;;;;;;4998780;28;20551;-81
2023/09/13 13:05:21;;;;;;;0.20;0.20;;;;;;;;;;4999726;28;20595;-79
2023/09/13 13:07:48;;;;;;;0.20;0.20;;;;;;;;;;5000359;28;20390;-81
2023/09/13 13:10:16;;;;;;;0.30;0.30;;;;;;;;;;4999451;28;20035;-81
2023/09/13 13:12:45;;;;;;;0.20;0.20;;;;;;;;;;5007754;28;20485;-80
2023/09/13 13:15:11;;;;;;;0.20;0.20;;;;;;;;;;5000743;28;20054;-80
2023/09/13 13:17:38;;;;;;;0.17;0.17;;;;;;;;;;5001781;28;20482;-80
2023/09/13 13:20:05;;;;;;;0.15;0.15;;;;;;;;;;5001197;28;20034;-80
2023/09/13 13:22:31;;;;;;;0.10;0.10;;;;;;;;;;5001117;28;20023;-80
2023/09/13 13:24:57;;;;;;;0.15;0.15;;;;;;;;;;5002788;28;20033;-81
2023/09/13 13:27:28;;;;;;;0.10;0.10;;;;;;;;;;5000153;28;20023;-79
2023/09/13 13:29:54;;;;;;;0.10;0.10;;;;;;;;;;4981485;28;20119;-81
2023/09/13 13:32:20;;;;;;;0.10;0.10;;;;;;;;;;4982945;28;20023;-81
2023/09/13 13:34:47;;;;;;;0.20;0.20;;;;;;;;;;4982781;28;20426;-81
2023/09/13 13:37:13;;;;;;;0.10;0.10;;;;;;;;;;4983510;28;20054;-81
2023/09/13 13:39:40;;;;;;;0.10;0.10;;;;;;;;;;4982963;28;20446;-81
2023/09/13 13:42:32;;;;;;;0.10;0.10;;;;;;;;;;5005736;28;20432;-81
2023/09/13 13:44:58;;;;;;;0.10;0.10;;;;;;;;;;5010027;28;20027;-80
2023/09/13 13:47:24;;;;;;;0.03;0.03;;;;;;;;;;5002305;28;20071;-80
2023/09/13 13:49:51;;;;;;;0.03;0.03;;;;;;;;;;5001218;28;20082;-80
2023/09/13 13:52:17;;;;;;;0.10;0.10;;;;;;;;;;5000990;28;20050;-80
2023/09/13 13:54:43;;;;;;;0.10;0.10;;;;;;;;;;5000233;28;20030;-80
2023/09/13 13:57:09;;;;;;;0.10;0.10;;;;;;;;;;5001765;28;20032;-81
2023/09/13 13:59:35;;;;;;;0.10;0.10;;;;;;;;;;5002878;28;20026;-81
2023/09/13 14:02:02;;;;;;;0.10;0.10;;;;;;;;;;4992058;28;20027;-81
2023/09/13 14:04:28;;;;;;;0.10;0.10;;;;;;;;;;4983953;28;20438;-82
2023/09/13 14:06:54;;;;;;;0.00;0.00;;;;;;;;;;4983051;28;20105;-82
2023/09/13 14:09:20;;;;;;;0.10;0.10;;;;;;;;;;4995947;28;20034;-81
2023/09/13 14:11:46;;;;;;;0.00;0.00;;;;;;;;;;5001428;28;20030;-79
2023/09/13 14:14:19;;;;;;;0.00;0.00;;;;;;;;;;5020574;28;20053;-82
2023/09/13 14:16:47;;;;;;;0.00;0.00;;;;;;;;;;5019827;28;20110;-79
2023/09/13 14:19:14;;;;;;;0.10;0.10;;;;;;;;;;4993996;28;20054;-78
2023/09/13 14:21:40;;;;;;;0.00;0.00;;;;;;;;;;5003077;28;20032;-79
2023/09/13 14:24:07;;;;;;;0.00;0.00;;;;;;;;;;5000543;28;20019;-80
2023/09/13 14:26:33;;;;;;;0.00;0.00;;;;;;;;;;5001932;28;20026;-80
2023/09/13 14:28:59;;;;;;;0.00;0.00;;;;;;;;;;5001624;28;20038;-80
2023/09/13 14:31:25;;;;;;;0.10;0.10;;;;;;;;;;5001091;28;20507;-81
2023/09/13 14:33:51;;;;;;;0.00;0.00;;;;;;;;;;5001357;28;20026;-80
2023/09/13 14:36:18;;;;;;;0.03;0.03;;;;;;;;;;4982022;28;20026;-80
2023/09/13 14:38:44;;;;;;;0.00;0.00;;;;;;;;;;4982409;28;20059;-79
2023/09/13 14:41:10;;;;;;;0.00;0.00;;;;;;;;;;4990010;28;20034;-82
2023/09/13 14:43:37;;;;;;;0.10;0.10;;;;;;;;;;5014383;28;20330;-83